Página principal
METAR-TAF:

METAR-TAF

Aeroportos :

Madrid-Getafe, Espanha

latitude: 40-18N, longitude: 003-43W, altura: 620 m

Observação actual do tempo

O boletim foi feito há 1 hora e 18 minutos, às 10:00 UTC
Vento 4 kt de este, variando entre norte e su-sudeste
Temperatura 26°C
Humidade 48%
Pressão 1023 hPa
Visibilidade 10 km ou mais
sem nuvens abaixo de 1500 metros e sem cumulonimbus

METAR: LEGT 191000Z 08004KT 010V160 CAVOK 26/14 Q1023

Hora: 13:18 (11:18 UTC)

Previsão

O boletim foi feito há 3 horas e 18 minutos, às 08:00 UTC
Previsão válida de 19 às 09 UTC a 19 às 18 UTC
Vento 5 kt com direcção variável
Visibilidade 10 km ou mais
Poucas nuvensa uma altura de 3500 ft
Probabilidade 30% :
Temporariamente
de 19 às 15 UTC a 19 às 18 UTC
Poucas nuvensa uma altura de 4500 ft, Cumulus congestus.

TAF: LEGT 190800Z 1909/1918 VRB05KT 9999 FEW035 PROB30 TEMPO 1915/1918 FEW045TCU

Observações e previsões do tempo de mais de 4000 aeroportos (mensagens METAR e TAF).

As estações disponíveis são os pontos amarelos e vermelhos sobre o mapa.

Mova o rato sobre o mapa para ver o nome da estação.

Depois clique no ponto para visualizar as observações e previsões meteorológicas.

Para alterar o mapa : clique nos botões verdes com uma cruz preta para aumentar o zoom; no botão verde com uma pitada de zoom; ou nas setas verdes para mapas adjacentes.


METAR-TAF: